Indiana, Pennsylvania
Current Conditions -  °F | °C
As of 6:15 PM on Tuesday 27 Jan 2015 (Local Time) from KIDI Reporting Station
Overcast Overcast  
Wind Chill: 12°   Ceiling: 1700
Heat Index: 21°   Visibility: 10mi
Dew Point: 18°   Wind: 8mph
Humidity: 86%   Direction: 310°NW
Pressure: 30.01"   Gusts: NA
Location:  40.62°N, 79.15°W
Report Text: KIDI 272315Z AUTO 31007KT 10SM BKN017 OVC023 M06/M08 A3001 RMK A01
Loading
Personal Weather Stations






























Interactive Weather Map New forecast layout! Learn more

10-Day Weather Forecast

Advertisements
Track Severe Weather on mobile